createdAt,value
2018-01-30T00:00:24.495Z,102606.40
2018-01-30T00:01:28.833Z,102606.41
2018-01-30T00:02:33.023Z,102609.42
2018-01-30T00:03:37.182Z,102603.58
2018-01-30T00:04:41.379Z,102607.34
2018-01-30T00:05:45.668Z,102613.41
2018-01-30T00:06:50.139Z,102610.18
2018-01-30T00:07:54.479Z,102609.67
2018-01-30T00:08:58.954Z,102603.30
2018-01-30T00:10:03.959Z,102609.23
2018-01-30T00:11:08.195Z,102608.82
2018-01-30T00:12:13.163Z,102606.70
2018-01-30T00:13:17.713Z,102607.28
2018-01-30T00:14:22.195Z,102608.47
2018-01-30T00:15:26.532Z,102611.65
2018-01-30T00:16:30.740Z,102609.23
2018-01-30T00:17:34.951Z,102614.80
2018-01-30T00:18:39.176Z,102610.21
2018-01-30T00:19:43.394Z,102613.55
2018-01-30T00:20:47.891Z,102618.59
2018-01-30T00:21:52.275Z,102620.26
2018-01-30T00:22:57.709Z,102621.17
2018-01-30T00:24:01.967Z,102616.90
2018-01-30T00:25:06.156Z,102619.13
2018-01-30T00:26:10.374Z,102618.78
2018-01-30T00:27:14.611Z,102614.91
2018-01-30T00:28:19.989Z,102616.16
2018-01-30T00:29:24.339Z,102616.84
2018-01-30T00:30:28.608Z,102617.31
2018-01-30T00:31:33.562Z,102618.47
2018-01-30T00:32:37.783Z,102622.56
2018-01-30T00:33:41.955Z,102626.20
2018-01-30T00:34:47.347Z,102623.27
2018-01-30T00:35:51.116Z,102624.17
2018-01-30T00:36:55.424Z,102617.22
2018-01-30T00:37:59.795Z,102617.26
2018-01-30T00:39:04.030Z,102617.55
2018-01-30T00:40:08.218Z,102618.00
2018-01-30T00:41:12.403Z,102620.98
2018-01-30T00:42:17.000Z,102622.21
2018-01-30T00:43:21.885Z,102620.20
2018-01-30T00:44:26.975Z,102617.02
2018-01-30T00:45:31.164Z,102622.98
2018-01-30T00:46:35.383Z,102617.41
2018-01-30T00:47:39.574Z,102618.64
2018-01-30T00:48:43.762Z,102624.16
2018-01-30T00:49:49.354Z,102625.83
2018-01-30T00:50:54.230Z,102618.14
2018-01-30T00:51:59.208Z,102626.22
2018-01-30T00:53:03.399Z,102622.84
2018-01-30T00:54:07.580Z,102618.00
2018-01-30T00:55:12.584Z,102623.92
2018-01-30T00:56:16.879Z,102613.84
2018-01-30T00:57:21.565Z,102624.34
2018-01-30T00:58:25.817Z,102627.40
2018-01-30T00:59:30.058Z,102630.36
2018-01-30T01:00:34.647Z,102632.02
2018-01-30T01:01:38.838Z,102620.28
2018-01-30T01:02:43.035Z,102622.99
2018-01-30T01:03:47.666Z,102624.92
2018-01-30T01:04:52.064Z,102620.23
2018-01-30T01:05:56.625Z,102624.45
2018-01-30T01:07:00.841Z,102623.92
2018-01-30T01:08:05.039Z,102631.17
2018-01-30T01:09:09.231Z,102632.86
2018-01-30T01:10:13.427Z,102628.23
2018-01-30T01:11:18.255Z,102630.17
2018-01-30T01:12:22.668Z,102635.80
2018-01-30T01:13:26.976Z,102635.60
2018-01-30T01:14:31.225Z,102634.77
2018-01-30T01:15:36.188Z,102627.66
2018-01-30T01:16:40.774Z,102628.42
2018-01-30T01:17:45.170Z,102623.32
2018-01-30T01:18:49.915Z,102622.42
2018-01-30T01:19:54.247Z,102623.98
2018-01-30T01:20:59.273Z,102619.69
2018-01-30T01:22:03.519Z,102622.40
2018-01-30T01:23:08.483Z,102625.03
2018-01-30T01:24:12.667Z,102620.16
2018-01-30T01:25:17.095Z,102624.44
2018-01-30T01:26:21.710Z,102625.73
2018-01-30T01:27:26.017Z,102622.67
2018-01-30T01:28:30.955Z,102622.44
2018-01-30T01:29:35.173Z,102618.55
2018-01-30T01:30:39.371Z,102611.84
2018-01-30T01:31:43.534Z,102616.80
2018-01-30T01:32:49.087Z,102615.33
2018-01-30T01:33:53.382Z,102607.63
2018-01-30T01:34:58.107Z,102611.79
2018-01-30T01:36:02.306Z,102610.41
2018-01-30T01:37:06.481Z,102606.48
2018-01-30T01:38:10.687Z,102612.61
2018-01-30T01:39:14.877Z,102604.53
2018-01-30T01:40:20.029Z,102602.41
2018-01-30T01:41:24.746Z,102604.90
2018-01-30T01:42:28.973Z,102601.43
2018-01-30T01:43:33.246Z,102600.66
2018-01-30T01:44:38.263Z,102604.27
2018-01-30T01:45:42.839Z,102596.33
2018-01-30T01:46:47.787Z,102600.09
2018-01-30T01:47:52.684Z,102602.30
2018-01-30T01:48:58.743Z,102608.48
2018-01-30T01:50:02.924Z,102604.27
2018-01-30T01:51:07.143Z,102605.15
2018-01-30T01:52:12.103Z,102606.42
2018-01-30T01:53:16.402Z,102600.41
2018-01-30T01:54:20.863Z,102602.63
2018-01-30T01:55:25.114Z,102608.05
2018-01-30T01:56:29.360Z,102602.34
2018-01-30T01:57:33.579Z,102605.33
2018-01-30T01:58:37.779Z,102601.11
2018-01-30T01:59:42.000Z,102604.86
2018-01-30T02:00:46.362Z,102607.42
2018-01-30T02:01:50.858Z,102610.89
2018-01-30T02:02:55.305Z,102609.89
2018-01-30T02:03:59.510Z,102612.38
2018-01-30T02:05:03.734Z,102614.86
2018-01-30T02:06:07.933Z,102612.33
2018-01-30T02:07:12.144Z,102610.05
2018-01-30T02:08:18.093Z,102614.97
2018-01-30T02:09:22.500Z,102614.02
2018-01-30T02:10:28.299Z,102617.33
2018-01-30T02:11:32.500Z,102617.23
2018-01-30T02:12:36.691Z,102621.83
2018-01-30T02:13:41.294Z,102611.69
2018-01-30T02:14:46.342Z,102615.93
2018-01-30T02:15:51.157Z,102615.47
2018-01-30T02:16:55.494Z,102614.45
2018-01-30T02:17:59.760Z,102614.09
2018-01-30T02:19:04.312Z,102609.37
2018-01-30T02:20:08.552Z,102613.96
2018-01-30T02:21:12.761Z,102611.38
2018-01-30T02:22:18.084Z,102613.94
2018-01-30T02:23:24.079Z,102612.20
2018-01-30T02:24:28.552Z,102616.89
2018-01-30T02:25:32.728Z,102613.88
2018-01-30T02:26:36.896Z,102606.61
2018-01-30T02:27:41.075Z,102610.30
2018-01-30T02:28:45.285Z,102611.19
2018-01-30T02:29:50.514Z,102611.52
2018-01-30T02:30:55.046Z,102614.80
2018-01-30T02:31:59.262Z,102610.15
2018-01-30T02:33:03.479Z,102619.45
2018-01-30T02:34:07.708Z,102612.98
2018-01-30T02:35:12.275Z,102613.41
2018-01-30T02:36:18.844Z,102618.55
2018-01-30T02:37:23.144Z,102610.48
2018-01-30T02:38:27.620Z,102619.72
2018-01-30T02:39:32.596Z,102620.59
2018-01-30T02:40:37.587Z,102627.67
2018-01-30T02:41:41.810Z,102624.17
2018-01-30T02:42:47.116Z,102626.33
2018-01-30T02:43:52.047Z,102627.52
2018-01-30T02:44:56.322Z,102629.59
2018-01-30T02:46:00.564Z,102632.11
2018-01-30T02:47:04.735Z,102630.02
2018-01-30T02:48:09.675Z,102625.34
2018-01-30T02:49:13.892Z,102629.58
2018-01-30T02:50:19.931Z,102626.63
2018-01-30T02:51:24.212Z,102631.17
2018-01-30T02:52:28.553Z,102630.37
2018-01-30T02:53:32.731Z,102626.55
2018-01-30T02:54:36.979Z,102635.86
2018-01-30T02:55:41.187Z,102636.69
2018-01-30T02:56:46.584Z,102639.20
2018-01-30T02:57:51.031Z,102638.78
2018-01-30T02:58:55.322Z,102643.47
2018-01-30T02:59:59.504Z,102640.91
2018-01-30T03:01:03.687Z,102633.77
2018-01-30T03:02:07.882Z,102633.91
2018-01-30T03:03:12.880Z,102633.94
2018-01-30T03:04:17.545Z,102635.66
2018-01-30T03:05:21.980Z,102635.30
2018-01-30T03:06:27.445Z,102645.01
2018-01-30T03:07:31.678Z,102644.16
2018-01-30T03:08:36.642Z,102644.09
2018-01-30T03:09:40.840Z,102643.24
2018-01-30T03:10:46.378Z,102643.22
2018-01-30T03:11:51.739Z,102643.33
2018-01-30T03:12:56.080Z,102642.88
2018-01-30T03:14:00.363Z,102642.91
2018-01-30T03:15:04.572Z,102639.91
2018-01-30T03:16:08.777Z,102643.98
2018-01-30T03:17:13.015Z,102646.97
2018-01-30T03:18:17.706Z,102648.15
2018-01-30T03:19:21.988Z,102646.80
2018-01-30T03:20:27.071Z,102647.13
2018-01-30T03:21:31.282Z,102642.36
2018-01-30T03:22:35.534Z,102643.72
2018-01-30T03:23:39.763Z,102641.56
2018-01-30T03:24:44.752Z,102639.74
2018-01-30T03:25:50.231Z,102638.42
2018-01-30T03:26:55.393Z,102636.75
2018-01-30T03:27:59.904Z,102634.48
2018-01-30T03:29:04.864Z,102642.11
2018-01-30T03:30:09.088Z,102635.25
2018-01-30T03:31:13.297Z,102642.11
2018-01-30T03:32:17.777Z,102639.98
2018-01-30T03:33:22.285Z,102638.75
2018-01-30T03:34:26.796Z,102639.66
2018-01-30T03:35:31.056Z,102643.49
2018-01-30T03:36:35.233Z,102645.70
2018-01-30T03:37:40.248Z,102647.59
2018-01-30T03:38:45.298Z,102645.41
2018-01-30T03:39:49.964Z,102647.92
2018-01-30T03:40:54.215Z,102642.41
2018-01-30T03:41:59.670Z,102647.03
2018-01-30T03:43:03.854Z,102647.51
2018-01-30T03:44:08.812Z,102644.04
2018-01-30T03:45:13.054Z,102652.55
2018-01-30T03:46:18.144Z,102658.38
2018-01-30T03:47:23.890Z,102660.86
2018-01-30T03:48:28.276Z,102659.09
2018-01-30T03:49:32.490Z,102659.59
2018-01-30T03:50:36.686Z,102641.03
2018-01-30T03:51:40.875Z,102637.14
2018-01-30T03:52:45.222Z,102637.23
2018-01-30T03:53:50.763Z,102638.86
2018-01-30T03:54:55.516Z,102643.09
2018-01-30T03:55:59.768Z,102644.01
2018-01-30T03:57:03.982Z,102651.99
2018-01-30T03:58:08.195Z,102656.70
2018-01-30T03:59:12.763Z,102659.16
2018-01-30T04:00:17.605Z,102662.56
2018-01-30T04:01:22.057Z,102662.12
2018-01-30T04:02:26.343Z,102659.18
2018-01-30T04:03:30.590Z,102647.95
2018-01-30T04:04:34.928Z,102643.68
2018-01-30T04:05:39.119Z,102645.38
2018-01-30T04:06:43.318Z,102649.69
2018-01-30T04:07:48.020Z,102650.45
2018-01-30T04:08:52.335Z,102658.03
2018-01-30T04:09:56.821Z,102669.11
2018-01-30T04:11:01.263Z,102654.84
2018-01-30T04:12:05.449Z,102660.70
2018-01-30T04:13:09.619Z,102653.16
2018-01-30T04:14:13.845Z,102648.00
2018-01-30T04:15:19.095Z,102643.11
2018-01-30T04:16:23.590Z,102644.81
2018-01-30T04:17:27.900Z,102644.81
2018-01-30T04:18:32.095Z,102645.67
2018-01-30T04:19:36.295Z,102650.73
2018-01-30T04:20:40.526Z,102657.05
2018-01-30T04:21:44.728Z,102661.34
2018-01-30T04:22:50.146Z,102655.86
2018-01-30T04:23:54.724Z,102655.03
2018-01-30T04:24:59.782Z,102650.41
2018-01-30T04:26:03.996Z,102658.92
2018-01-30T04:27:08.174Z,102662.19
2018-01-30T04:28:12.391Z,102667.27
2018-01-30T04:29:17.996Z,102665.66
2018-01-30T04:30:22.398Z,102660.10
2018-01-30T04:31:27.194Z,102661.81
2018-01-30T04:32:31.424Z,102660.22
2018-01-30T04:33:35.609Z,102657.32
2018-01-30T04:34:39.801Z,102661.89
2018-01-30T04:35:44.828Z,102658.09
2018-01-30T04:36:50.287Z,102662.88
2018-01-30T04:37:54.597Z,102665.42
2018-01-30T04:38:59.291Z,102663.74
2018-01-30T04:40:04.361Z,102660.32
2018-01-30T04:41:08.604Z,102665.42
2018-01-30T04:42:12.774Z,102661.98
2018-01-30T04:43:17.170Z,102663.33
2018-01-30T04:44:21.899Z,102663.33
2018-01-30T04:45:26.154Z,102662.83
2018-01-30T04:46:30.400Z,102666.98
2018-01-30T04:47:35.349Z,102665.34
2018-01-30T04:48:39.518Z,102664.89
2018-01-30T04:49:43.757Z,102666.20
2018-01-30T04:50:49.412Z,102660.68
2018-01-30T04:51:53.789Z,102665.72
2018-01-30T04:52:58.281Z,102665.34
2018-01-30T04:54:02.557Z,102676.66
2018-01-30T04:55:07.533Z,102679.20
2018-01-30T04:56:11.745Z,102680.34
2018-01-30T04:57:16.579Z,102682.80
2018-01-30T04:58:21.140Z,102687.21
2018-01-30T04:59:26.237Z,102685.11
2018-01-30T05:00:31.252Z,102684.34
2018-01-30T05:01:35.527Z,102677.16
2018-01-30T05:02:39.699Z,102678.81
2018-01-30T05:03:43.937Z,102681.37
2018-01-30T05:04:49.413Z,102678.89
2018-01-30T05:05:53.675Z,102688.98
2018-01-30T05:06:58.008Z,102680.58
2018-01-30T05:08:02.256Z,102688.03
2018-01-30T05:09:06.467Z,102684.17
2018-01-30T05:10:10.666Z,102693.90
2018-01-30T05:11:14.873Z,102697.34
2018-01-30T05:12:19.809Z,102698.20
2018-01-30T05:13:24.712Z,102703.63
2018-01-30T05:14:28.947Z,102695.58
2018-01-30T05:15:33.136Z,102698.91
2018-01-30T05:16:37.350Z,102693.02
2018-01-30T05:17:41.565Z,102687.04
2018-01-30T05:18:46.382Z,102690.04
2018-01-30T05:19:51.937Z,102685.39
2018-01-30T05:20:56.238Z,102679.82
2018-01-30T05:22:00.546Z,102676.43
2018-01-30T05:23:04.749Z,102681.94
2018-01-30T05:24:09.276Z,102682.77
2018-01-30T05:25:13.490Z,102685.83
2018-01-30T05:26:18.991Z,102683.56
2018-01-30T05:27:23.829Z,102680.03
2018-01-30T05:28:29.275Z,102679.62
2018-01-30T05:29:34.276Z,102681.80
2018-01-30T05:30:38.558Z,102691.41
2018-01-30T05:31:42.763Z,102690.14
2018-01-30T05:32:47.056Z,102695.20
2018-01-30T05:33:52.200Z,102698.55
2018-01-30T05:34:56.491Z,102698.13
2018-01-30T05:36:00.766Z,102691.80
2018-01-30T05:37:04.983Z,102696.33
2018-01-30T05:38:09.380Z,102693.88
2018-01-30T05:39:13.580Z,102694.68
2018-01-30T05:40:19.958Z,102695.77
2018-01-30T05:41:24.275Z,102695.89
2018-01-30T05:42:28.613Z,102691.94
2018-01-30T05:43:33.570Z,102693.45
2018-01-30T05:44:37.786Z,102696.72
2018-01-30T05:45:42.065Z,102692.59
2018-01-30T05:46:47.680Z,102690.47
2018-01-30T05:47:52.534Z,102685.67
2018-01-30T05:48:56.855Z,102690.06
2018-01-30T05:50:01.188Z,102693.45
2018-01-30T05:51:05.406Z,102692.50
2018-01-30T05:52:09.668Z,102699.95
2018-01-30T05:53:13.886Z,102697.86
2018-01-30T05:54:18.398Z,102700.37
2018-01-30T05:55:23.105Z,102700.70
2018-01-30T05:56:28.233Z,102700.13
2018-01-30T05:57:32.979Z,102699.25
2018-01-30T05:58:37.314Z,102692.45
2018-01-30T05:59:41.538Z,102700.02
2018-01-30T06:00:45.752Z,102697.83
2018-01-30T06:01:50.339Z,102694.06
2018-01-30T06:02:54.751Z,102686.85
2018-01-30T06:03:59.793Z,102682.64
2018-01-30T06:05:04.771Z,102682.64
2018-01-30T06:06:09.012Z,102684.37
2018-01-30T06:07:13.168Z,102683.87
2018-01-30T06:08:17.725Z,102690.13
2018-01-30T06:09:22.389Z,102681.63
2018-01-30T06:10:26.900Z,102686.29
2018-01-30T06:11:31.137Z,102683.76
2018-01-30T06:12:35.321Z,102684.32
2018-01-30T06:13:40.319Z,102682.88
2018-01-30T06:14:44.524Z,102679.41
2018-01-30T06:15:50.872Z,102691.58
2018-01-30T06:16:55.212Z,102683.20
2018-01-30T06:17:59.435Z,102685.61
2018-01-30T06:19:03.674Z,102681.34
2018-01-30T06:20:07.894Z,102677.48
2018-01-30T06:21:12.077Z,102680.01
2018-01-30T06:22:18.266Z,102682.20
2018-01-30T06:23:23.021Z,102674.06
2018-01-30T06:24:27.243Z,102676.21
2018-01-30T06:25:31.517Z,102675.54
2018-01-30T06:26:35.713Z,102681.45
2018-01-30T06:27:40.321Z,102677.19
2018-01-30T06:28:44.527Z,102678.95
2018-01-30T06:29:49.355Z,102668.41
2018-01-30T06:30:55.098Z,102677.75
2018-01-30T06:31:59.374Z,102678.58
2018-01-30T06:33:03.560Z,102679.41
2018-01-30T06:34:07.775Z,102676.45
2018-01-30T06:35:11.962Z,102683.55
2018-01-30T06:36:16.760Z,102687.64
2018-01-30T06:37:21.179Z,102689.70
2018-01-30T06:38:26.473Z,102690.58
2018-01-30T06:39:30.727Z,102688.84
2018-01-30T06:40:35.667Z,102687.58
2018-01-30T06:41:40.192Z,102688.91
2018-01-30T06:42:44.367Z,102698.59
2018-01-30T06:43:50.066Z,102694.34
2018-01-30T06:44:55.561Z,102690.17
2018-01-30T06:45:59.779Z,102688.02
2018-01-30T06:47:04.763Z,102690.08
2018-01-30T06:48:08.997Z,102688.75
2018-01-30T06:49:13.176Z,102689.48
2018-01-30T06:50:17.615Z,102696.16
2018-01-30T06:51:22.796Z,102698.16
2018-01-30T06:52:27.090Z,102703.22
2018-01-30T06:53:32.063Z,102696.01
2018-01-30T06:54:36.290Z,102695.16
2018-01-30T06:55:40.645Z,102708.26
2018-01-30T06:56:45.898Z,102702.38
2018-01-30T06:57:50.420Z,102706.89
2018-01-30T06:58:54.835Z,102713.48
2018-01-30T06:59:59.202Z,102713.07
2018-01-30T07:01:03.787Z,102706.33
2018-01-30T07:02:07.988Z,102710.28
2018-01-30T07:03:12.234Z,102714.40
2018-01-30T07:04:16.573Z,102711.33
2018-01-30T07:05:21.761Z,102705.38
2018-01-30T07:06:26.373Z,102699.88
2018-01-30T07:07:30.578Z,102701.94
2018-01-30T07:08:34.822Z,102694.41
2018-01-30T07:09:39.050Z,102696.49
2018-01-30T07:10:44.057Z,102703.17
2018-01-30T07:11:49.274Z,102706.11
2018-01-30T07:12:55.356Z,102710.73
2018-01-30T07:13:59.552Z,102710.70
2018-01-30T07:15:03.769Z,102714.56
2018-01-30T07:16:07.939Z,102706.59
2018-01-30T07:17:12.175Z,102706.59
2018-01-30T07:18:16.464Z,102694.75
2018-01-30T07:19:20.722Z,102701.05
2018-01-30T07:20:31.700Z,102701.94
2018-01-30T07:21:35.867Z,102701.91
2018-01-30T07:22:40.129Z,102703.48
2018-01-30T07:23:44.309Z,102696.75
2018-01-30T07:24:48.580Z,102703.14
2018-01-30T07:25:52.799Z,102699.34
2018-01-30T07:26:57.034Z,102700.16
2018-01-30T07:28:01.331Z,102693.33
2018-01-30T07:29:06.270Z,102697.89
2018-01-30T07:30:10.502Z,102693.66
2018-01-30T07:31:14.715Z,102696.22
2018-01-30T07:32:19.152Z,102703.84
2018-01-30T07:33:24.171Z,102701.31
2018-01-30T07:34:28.737Z,102710.20
2018-01-30T07:35:33.032Z,102714.78
2018-01-30T07:36:37.290Z,102716.90
2018-01-30T07:37:41.495Z,102715.67
2018-01-30T07:38:45.741Z,102717.50
2018-01-30T07:39:50.300Z,102706.59
2018-01-30T07:40:54.580Z,102705.86
2018-01-30T07:41:58.758Z,102709.69
2018-01-30T07:43:02.944Z,102714.97
2018-01-30T07:44:07.139Z,102709.91
2018-01-30T07:45:11.381Z,102713.30
2018-01-30T07:46:15.616Z,102713.20
2018-01-30T07:47:21.202Z,102705.67
2018-01-30T07:48:25.472Z,102702.91
2018-01-30T07:49:30.022Z,102705.06
2018-01-30T07:50:34.295Z,102697.13
2018-01-30T07:51:38.495Z,102702.59
2018-01-30T07:52:42.765Z,102694.56
2018-01-30T07:53:49.050Z,102701.74
2018-01-30T07:54:53.331Z,102704.75
2018-01-30T07:55:58.457Z,102709.02
2018-01-30T07:57:03.493Z,102707.31
2018-01-30T07:58:08.482Z,102708.16
2018-01-30T07:59:12.686Z,102710.25
2018-01-30T08:00:17.666Z,102712.41
2018-01-30T08:01:22.529Z,102719.20
2018-01-30T08:02:27.327Z,102712.62
2018-01-30T08:03:31.566Z,102711.77
2018-01-30T08:04:35.780Z,102716.86
2018-01-30T08:05:40.004Z,102712.23
2018-01-30T08:06:44.184Z,102719.07
2018-01-30T08:07:49.502Z,102717.84
2018-01-30T08:08:54.089Z,102716.25
2018-01-30T08:09:59.212Z,102712.90
2018-01-30T08:11:04.915Z,102713.75
2018-01-30T08:12:10.123Z,102720.58
2018-01-30T08:13:15.126Z,102718.94
2018-01-30T08:14:20.758Z,102714.31
2018-01-30T08:15:25.142Z,102723.23
2018-01-30T08:16:29.573Z,102719.91
2018-01-30T08:17:33.853Z,102716.23
2018-01-30T08:18:38.060Z,102714.50
2018-01-30T08:19:42.279Z,102720.48
2018-01-30T08:20:46.667Z,102722.27
2018-01-30T08:21:51.873Z,102718.50
2018-01-30T08:22:56.434Z,102726.23
2018-01-30T08:24:00.799Z,102727.08
2018-01-30T08:25:05.010Z,102723.78
2018-01-30T08:26:09.273Z,102723.02
2018-01-30T08:27:14.225Z,102725.61
2018-01-30T08:28:19.050Z,102726.08
2018-01-30T08:29:23.763Z,102722.81
2018-01-30T08:30:28.275Z,102721.66
2018-01-30T08:31:32.789Z,102723.84
2018-01-30T08:32:37.000Z,102720.45
2018-01-30T08:33:41.219Z,102728.63
2018-01-30T08:34:45.436Z,102730.00
2018-01-30T08:35:50.670Z,102720.75
2018-01-30T08:36:54.972Z,102714.89
2018-01-30T08:37:59.295Z,102717.57
2018-01-30T08:39:03.653Z,102721.37
2018-01-30T08:40:09.492Z,102721.52
2018-01-30T08:41:13.680Z,102724.99
2018-01-30T08:42:18.784Z,102724.64
2018-01-30T08:43:23.921Z,102734.36
2018-01-30T08:44:28.317Z,102729.41
2018-01-30T08:45:33.315Z,102725.25
2018-01-30T08:46:37.487Z,102727.11
2018-01-30T08:47:41.695Z,102725.09
2018-01-30T08:48:46.000Z,102721.87
2018-01-30T08:49:50.502Z,102717.16
2018-01-30T08:50:55.007Z,102719.48
2018-01-30T08:51:59.271Z,102716.09
2018-01-30T08:53:03.445Z,102721.22
2018-01-30T08:54:08.390Z,102721.25
2018-01-30T08:55:12.808Z,102728.91
2018-01-30T08:56:17.592Z,102729.46
2018-01-30T08:57:22.651Z,102719.02
2018-01-30T08:58:27.653Z,102714.45
2018-01-30T08:59:31.879Z,102703.28
2018-01-30T09:00:36.926Z,102701.37
2018-01-30T09:01:41.141Z,102701.44
2018-01-30T09:02:45.316Z,102700.25
2018-01-30T09:03:50.620Z,102702.78
2018-01-30T09:04:54.902Z,102704.48
2018-01-30T09:06:00.073Z,102702.55
2018-01-30T09:07:04.251Z,102703.54
2018-01-30T09:08:08.442Z,102702.74
2018-01-30T09:09:13.786Z,102698.69
2018-01-30T09:10:18.701Z,102691.17
2018-01-30T09:11:23.023Z,102692.97
2018-01-30T09:12:27.714Z,102691.47
2018-01-30T09:13:32.686Z,102690.27
2018-01-30T09:14:36.904Z,102701.66
2018-01-30T09:15:41.150Z,102700.34
2018-01-30T09:16:45.413Z,102708.89
2018-01-30T09:17:49.805Z,102707.75
2018-01-30T09:18:54.861Z,102704.47
2018-01-30T09:19:59.116Z,102700.78
2018-01-30T09:21:03.392Z,102693.37
2018-01-30T09:22:07.575Z,102691.27
2018-01-30T09:23:12.567Z,102696.03
2018-01-30T09:24:17.487Z,102702.48
2018-01-30T09:25:22.052Z,102699.69
2018-01-30T09:26:26.611Z,102703.66
2018-01-30T09:27:30.986Z,102698.66
2018-01-30T09:28:35.935Z,102697.92
2018-01-30T09:29:40.121Z,102702.59
2018-01-30T09:30:45.181Z,102695.22
2018-01-30T09:31:51.626Z,102699.03
2018-01-30T09:32:56.592Z,102697.13
2018-01-30T09:34:00.808Z,102694.57
2018-01-30T09:35:05.059Z,102696.45
2018-01-30T09:36:10.073Z,102688.15
2018-01-30T09:37:14.285Z,102694.54
2018-01-30T09:38:19.971Z,102692.07
2018-01-30T09:39:24.282Z,102692.78
2018-01-30T09:40:28.643Z,102692.86
2018-01-30T09:41:32.909Z,102694.22
2018-01-30T09:42:37.204Z,102694.36
2018-01-30T09:43:42.143Z,102694.51
2018-01-30T09:44:46.745Z,102699.54
2018-01-30T09:45:52.417Z,102702.53
2018-01-30T09:46:56.799Z,102709.39
2018-01-30T09:48:01.163Z,102713.40
2018-01-30T09:49:05.372Z,102711.70
2018-01-30T09:50:09.567Z,102707.02
2018-01-30T09:51:13.803Z,102714.80
2018-01-30T09:52:18.229Z,102712.70
2018-01-30T09:53:22.751Z,102713.92
2018-01-30T09:54:28.329Z,102715.89
2018-01-30T09:55:33.268Z,102713.53
2018-01-30T09:56:38.249Z,102719.94
2018-01-30T09:57:42.455Z,102720.83
2018-01-30T09:58:47.189Z,102719.13
2018-01-30T09:59:52.582Z,102716.22
2018-01-30T10:00:56.830Z,102717.94
2018-01-30T10:02:01.090Z,102717.78
2018-01-30T10:03:06.109Z,102718.70
2018-01-30T10:04:11.230Z,102724.53
2018-01-30T10:05:15.421Z,102730.07
2018-01-30T10:06:20.193Z,102723.46
2018-01-30T10:07:24.620Z,102723.59
2018-01-30T10:08:28.842Z,102719.60
2018-01-30T10:09:33.024Z,102721.35
2018-01-30T10:10:37.974Z,102723.59
2018-01-30T10:11:42.273Z,102723.77
2018-01-30T10:12:47.248Z,102720.37
2018-01-30T10:13:51.775Z,102719.08
2018-01-30T10:14:56.014Z,102715.64
2018-01-30T10:16:01.186Z,102719.11
2018-01-30T10:17:05.364Z,102714.05
2018-01-30T10:18:10.449Z,102717.36
2018-01-30T10:19:14.673Z,102715.73
2018-01-30T10:20:20.154Z,102714.97
2018-01-30T10:21:25.402Z,102712.62
2018-01-30T10:22:29.649Z,102715.52
2018-01-30T10:23:33.909Z,102714.70
2018-01-30T10:24:38.531Z,102717.40
2018-01-30T10:25:43.508Z,102719.44
2018-01-30T10:26:48.328Z,102713.12
2018-01-30T10:27:53.111Z,102713.08
2018-01-30T10:28:57.717Z,102719.05
2018-01-30T10:30:02.719Z,102724.22
2018-01-30T10:31:06.938Z,102723.08
2018-01-30T10:32:11.119Z,102726.76
2018-01-30T10:33:15.312Z,102726.41
2018-01-30T10:34:19.697Z,102721.78
2018-01-30T10:35:24.042Z,102724.00
2018-01-30T10:36:28.294Z,102717.83
2018-01-30T10:37:33.315Z,102722.06
2018-01-30T10:38:37.509Z,102724.73
2018-01-30T10:39:41.697Z,102718.03
2018-01-30T10:40:46.039Z,102719.73
2018-01-30T10:41:50.646Z,102728.13
2018-01-30T10:42:56.440Z,102726.00
2018-01-30T10:44:01.415Z,102728.14
2018-01-30T10:45:05.594Z,102728.88
2018-01-30T10:46:09.786Z,102726.61
2018-01-30T10:47:14.004Z,102728.84
2018-01-30T10:48:19.187Z,102732.30
2018-01-30T10:49:23.457Z,102725.13
2018-01-30T10:50:28.549Z,102726.93
2018-01-30T10:51:32.743Z,102726.02
2018-01-30T10:52:36.968Z,102729.44
2018-01-30T10:53:41.215Z,102732.00
2018-01-30T10:54:46.566Z,102729.55
2018-01-30T10:55:51.902Z,102725.05
2018-01-30T10:56:56.205Z,102728.64
2018-01-30T10:58:00.428Z,102724.74
2018-01-30T10:59:04.642Z,102722.67
2018-01-30T11:00:08.901Z,102727.28
2018-01-30T11:01:13.085Z,102726.48
2018-01-30T11:02:17.476Z,102723.47
2018-01-30T11:03:22.233Z,102721.97
2018-01-30T11:04:26.659Z,102724.69
2018-01-30T11:05:30.858Z,102723.84
2018-01-30T11:06:35.122Z,102722.44
2018-01-30T11:07:40.087Z,102709.59
2018-01-30T11:08:44.250Z,102711.78
2018-01-30T11:09:49.541Z,102707.61
2018-01-30T11:10:53.936Z,102710.09
2018-01-30T11:11:58.731Z,102712.84
2018-01-30T11:13:02.918Z,102713.05
2018-01-30T11:14:07.891Z,102707.70
2018-01-30T11:15:12.861Z,102709.16
2018-01-30T11:16:17.800Z,102709.73
2018-01-30T11:17:22.457Z,102707.36
2018-01-30T11:18:27.050Z,102705.04
2018-01-30T11:19:31.349Z,102712.01
2018-01-30T11:20:35.620Z,102707.85
2018-01-30T11:21:40.646Z,102712.27
2018-01-30T11:22:44.910Z,102707.94
2018-01-30T11:23:51.682Z,102706.87
2018-01-30T11:24:55.940Z,102707.55
2018-01-30T11:26:00.155Z,102706.81
2018-01-30T11:27:04.365Z,102702.55
2018-01-30T11:28:08.582Z,102703.23
2018-01-30T11:29:12.783Z,102700.91
2018-01-30T11:30:17.135Z,102700.00
2018-01-30T11:31:22.253Z,102699.05
2018-01-30T11:32:27.328Z,102704.19
2018-01-30T11:33:31.498Z,102704.02
2018-01-30T11:34:35.676Z,102698.17
2018-01-30T11:35:39.875Z,102698.23
2018-01-30T11:36:44.885Z,102690.86
2018-01-30T11:37:49.434Z,102691.37
2018-01-30T11:38:53.701Z,102691.50
2018-01-30T11:39:57.916Z,102682.43
2018-01-30T11:41:03.210Z,102680.89
2018-01-30T11:42:07.402Z,102678.80
2018-01-30T11:43:12.354Z,102683.42
2018-01-30T11:44:17.499Z,102684.63
2018-01-30T11:45:22.257Z,102684.84
2018-01-30T11:46:26.538Z,102677.75
2018-01-30T11:47:30.763Z,102677.45
2018-01-30T11:48:34.999Z,102675.30
2018-01-30T11:49:39.148Z,102671.52
2018-01-30T11:50:43.361Z,102674.54
2018-01-30T11:51:47.985Z,102664.88
2018-01-30T11:52:52.993Z,102663.67
2018-01-30T11:53:57.436Z,102661.28
2018-01-30T11:55:01.637Z,102656.31
2018-01-30T11:56:05.937Z,102653.14
2018-01-30T11:57:10.131Z,102648.77
2018-01-30T11:58:15.190Z,102648.66
2018-01-30T11:59:20.703Z,102645.38
2018-01-30T12:00:25.013Z,102639.18
2018-01-30T12:01:30.260Z,102640.63
2018-01-30T12:02:35.209Z,102638.97
2018-01-30T12:03:39.445Z,102635.41
2018-01-30T12:04:43.712Z,102643.75
2018-01-30T12:05:48.589Z,102642.27
2018-01-30T12:06:53.627Z,102638.20
2018-01-30T12:07:58.057Z,102637.86
2018-01-30T12:09:02.619Z,102637.09
2018-01-30T12:10:07.690Z,102642.42
2018-01-30T12:11:13.386Z,102636.95
2018-01-30T12:12:18.110Z,102636.27
2018-01-30T12:13:23.729Z,102634.56
2018-01-30T12:14:28.795Z,102634.32
2018-01-30T12:15:33.014Z,102633.08
2018-01-30T12:16:37.198Z,102640.63